createdAt,value
2019-02-09T00:00:30.191Z,8.10
2019-02-09T00:02:58.389Z,8.10
2019-02-09T00:05:26.575Z,8.20
2019-02-09T00:07:54.759Z,8.10
2019-02-09T00:10:22.958Z,8.10
2019-02-09T00:12:51.160Z,8.10
2019-02-09T00:15:19.348Z,8.10
2019-02-09T00:17:47.539Z,8.10
2019-02-09T00:20:17.379Z,8.20
2019-02-09T00:22:45.567Z,8.20
2019-02-09T00:25:15.544Z,8.30
2019-02-09T00:27:43.735Z,8.20
2019-02-09T00:30:16.107Z,8.30
2019-02-09T00:32:44.304Z,8.30
2019-02-09T00:35:14.350Z,8.30
2019-02-09T00:37:42.531Z,8.30
2019-02-09T00:40:12.955Z,8.30
2019-02-09T00:42:41.155Z,8.30
2019-02-09T00:45:11.783Z,8.40
2019-02-09T00:47:39.983Z,8.40
2019-02-09T00:50:11.007Z,8.40
2019-02-09T00:52:39.208Z,8.50
2019-02-09T00:55:10.647Z,8.60
2019-02-09T00:57:38.848Z,8.60
2019-02-09T01:00:13.263Z,8.70
2019-02-09T01:02:41.459Z,8.80
2019-02-09T01:05:09.727Z,8.70
2019-02-09T01:07:37.913Z,8.60
2019-02-09T01:10:09.373Z,8.50
2019-02-09T01:12:37.572Z,8.50
2019-02-09T01:15:11.711Z,8.40
2019-02-09T01:17:39.910Z,8.40
2019-02-09T01:20:11.331Z,8.40
2019-02-09T01:22:39.531Z,8.40
2019-02-09T01:25:09.860Z,8.40
2019-02-09T01:27:38.047Z,8.30
2019-02-09T01:30:11.956Z,8.20
2019-02-09T01:32:40.151Z,8.20
2019-02-09T01:35:11.283Z,8.20
2019-02-09T01:37:39.543Z,8.10
2019-02-09T01:40:10.990Z,8.00
2019-02-09T01:42:39.178Z,8.00
2019-02-09T01:45:15.991Z,8.00
2019-02-09T01:47:44.180Z,8.00
2019-02-09T01:50:15.219Z,8.00
2019-02-09T01:52:43.419Z,8.00
2019-02-09T01:55:11.981Z,8.10
2019-02-09T01:57:40.169Z,8.10
2019-02-09T02:00:11.841Z,8.10
2019-02-09T02:02:40.040Z,8.20
2019-02-09T02:05:10.267Z,8.20
2019-02-09T02:07:38.463Z,8.30
2019-02-09T02:10:09.907Z,8.30
2019-02-09T02:12:38.111Z,8.20
2019-02-09T02:15:12.401Z,8.20
2019-02-09T02:17:40.580Z,8.20
2019-02-09T02:20:12.035Z,8.20
2019-02-09T02:22:40.231Z,8.20
2019-02-09T02:25:08.491Z,8.10
2019-02-09T02:27:36.679Z,8.20
2019-02-09T02:30:08.130Z,8.10
2019-02-09T02:32:36.312Z,8.10
2019-02-09T02:35:06.850Z,8.10
2019-02-09T02:37:35.039Z,8.10
2019-02-09T02:40:04.464Z,8.10
2019-02-09T02:42:32.659Z,8.00
2019-02-09T02:45:00.862Z,8.00
2019-02-09T02:47:29.043Z,8.00
2019-02-09T02:49:57.227Z,8.00
2019-02-09T02:52:25.424Z,7.90
2019-02-09T02:54:53.617Z,8.00
2019-02-09T02:57:21.813Z,8.10
2019-02-09T02:59:50.295Z,8.30
2019-02-09T03:02:18.491Z,8.30
2019-02-09T03:04:46.742Z,8.40
2019-02-09T03:07:14.955Z,8.40
2019-02-09T03:09:43.151Z,8.30
2019-02-09T03:12:11.347Z,8.40
2019-02-09T03:14:39.553Z,8.40
2019-02-09T03:17:07.735Z,8.40
2019-02-09T03:19:35.926Z,8.40
2019-02-09T03:22:04.119Z,8.30
2019-02-09T03:24:32.307Z,8.40
2019-02-09T03:27:00.503Z,8.40
2019-02-09T03:29:28.695Z,8.30
2019-02-09T03:31:58.131Z,8.30
2019-02-09T03:34:26.312Z,8.30
2019-02-09T03:36:54.511Z,8.20
2019-02-09T03:39:22.696Z,8.10
2019-02-09T03:41:50.903Z,8.10
2019-02-09T03:44:19.095Z,8.00
2019-02-09T03:46:47.283Z,7.90
2019-02-09T03:49:15.487Z,7.80
2019-02-09T03:51:43.672Z,7.70
2019-02-09T03:54:11.855Z,7.70
2019-02-09T03:56:40.048Z,7.70
2019-02-09T03:59:08.247Z,7.80
2019-02-09T04:01:36.443Z,7.90
2019-02-09T04:04:04.633Z,7.90
2019-02-09T04:06:32.828Z,7.90
2019-02-09T04:09:01.014Z,7.90
2019-02-09T04:11:29.217Z,8.00
2019-02-09T04:13:57.400Z,7.90
2019-02-09T04:16:25.595Z,8.00
2019-02-09T04:18:53.788Z,7.90
2019-02-09T04:21:21.983Z,7.90
2019-02-09T04:23:50.166Z,7.90
2019-02-09T04:26:18.374Z,8.00
2019-02-09T04:28:46.559Z,8.10
2019-02-09T04:31:14.768Z,8.20
2019-02-09T04:33:42.963Z,8.20
2019-02-09T04:36:11.160Z,8.20
2019-02-09T04:38:39.347Z,8.30
2019-02-09T04:41:07.528Z,8.20
2019-02-09T04:43:35.802Z,8.20
2019-02-09T04:46:04.052Z,8.20
2019-02-09T04:48:32.267Z,8.30
2019-02-09T04:51:00.456Z,8.30
2019-02-09T04:53:28.677Z,8.20
2019-02-09T04:55:56.838Z,8.20
2019-02-09T04:58:25.039Z,8.20
2019-02-09T05:00:53.240Z,8.10
2019-02-09T05:03:21.428Z,8.00
2019-02-09T05:05:49.628Z,8.00
2019-02-09T05:08:17.817Z,8.00
2019-02-09T05:10:46.008Z,8.20
2019-02-09T05:13:14.204Z,8.30
2019-02-09T05:15:42.391Z,8.30
2019-02-09T05:18:10.582Z,8.20
2019-02-09T05:20:38.775Z,8.30
2019-02-09T05:23:06.976Z,8.30
2019-02-09T05:25:35.164Z,8.10
2019-02-09T05:28:03.373Z,8.00
2019-02-09T05:30:31.556Z,8.00
2019-02-09T05:33:00.633Z,7.90
2019-02-09T05:35:29.787Z,8.00
2019-02-09T05:37:57.981Z,8.10
2019-02-09T05:40:26.912Z,8.10
2019-02-09T05:42:55.111Z,8.20
2019-02-09T05:45:25.335Z,8.00
2019-02-09T05:47:53.542Z,7.90
2019-02-09T05:50:21.724Z,7.80
2019-02-09T05:52:49.933Z,7.90
2019-02-09T05:55:18.448Z,7.90
2019-02-09T05:57:46.627Z,8.00
2019-02-09T06:00:22.435Z,8.00
2019-02-09T06:02:50.620Z,8.00
2019-02-09T06:05:19.483Z,8.00
2019-02-09T06:07:47.676Z,8.20
2019-02-09T06:10:17.539Z,8.20
2019-02-09T06:12:45.791Z,8.30
2019-02-09T06:15:17.008Z,8.40
2019-02-09T06:17:45.221Z,8.40
2019-02-09T06:20:18.862Z,8.30
2019-02-09T06:22:47.119Z,8.30
2019-02-09T06:25:15.337Z,8.30
2019-02-09T06:27:43.511Z,8.30
2019-02-09T06:30:44.959Z,8.30
2019-02-09T06:33:13.810Z,8.40
2019-02-09T06:35:42.005Z,8.50
2019-02-09T06:38:10.216Z,8.40
2019-02-09T06:40:38.397Z,8.40
2019-02-09T06:43:06.590Z,8.50
2019-02-09T06:45:34.779Z,8.40
2019-02-09T06:48:18.233Z,8.50
2019-02-09T06:50:46.459Z,8.50
2019-02-09T06:53:14.678Z,8.50
2019-02-09T06:55:42.875Z,8.50
2019-02-09T06:58:11.075Z,8.60
2019-02-09T07:00:39.263Z,8.60
2019-02-09T07:03:07.467Z,8.60
2019-02-09T07:05:35.663Z,8.60
2019-02-09T07:08:03.919Z,8.70
2019-02-09T07:10:32.118Z,8.70
2019-02-09T07:13:00.317Z,8.70
2019-02-09T07:15:33.452Z,8.60
2019-02-09T07:18:01.652Z,8.50
2019-02-09T07:20:29.859Z,8.50
2019-02-09T07:22:58.036Z,8.60
2019-02-09T07:25:26.236Z,8.70
2019-02-09T07:27:54.419Z,8.70
2019-02-09T07:30:28.880Z,8.70
2019-02-09T07:32:57.274Z,8.80
2019-02-09T07:35:25.464Z,8.90
2019-02-09T07:38:13.087Z,8.90
2019-02-09T07:40:41.287Z,8.80
2019-02-09T07:43:09.487Z,8.70
2019-02-09T07:45:37.922Z,8.80
2019-02-09T07:48:06.567Z,8.80
2019-02-09T07:50:34.756Z,8.70
2019-02-09T07:53:02.968Z,8.70
2019-02-09T07:55:31.159Z,8.90
2019-02-09T07:57:59.355Z,8.90
2019-02-09T08:00:34.589Z,8.90
2019-02-09T08:03:02.785Z,9.00
2019-02-09T08:05:31.819Z,9.00
2019-02-09T08:08:00.027Z,9.10
2019-02-09T08:10:47.656Z,9.70
2019-02-09T08:13:15.859Z,10.20
2019-02-09T08:15:44.059Z,9.70
2019-02-09T08:18:12.244Z,9.40
2019-02-09T08:20:40.446Z,9.40
2019-02-09T08:23:12.087Z,9.60
2019-02-09T08:25:41.352Z,9.70
2019-02-09T08:28:11.185Z,10.40
2019-02-09T08:30:44.905Z,11.10
2019-02-09T08:33:13.099Z,11.60
2019-02-09T08:35:41.291Z,10.70
2019-02-09T08:38:10.431Z,10.10
2019-02-09T08:40:38.615Z,9.70
2019-02-09T08:43:06.803Z,9.60
2019-02-09T08:45:34.999Z,9.50
2019-02-09T08:48:03.184Z,9.40
2019-02-09T08:50:40.177Z,9.80
2019-02-09T08:53:08.383Z,11.00
2019-02-09T08:55:36.600Z,11.80
2019-02-09T08:58:04.791Z,10.80
2019-02-09T09:00:35.379Z,9.90
2019-02-09T09:03:03.948Z,9.50
2019-02-09T09:05:32.711Z,9.10
2019-02-09T09:08:00.896Z,9.00
2019-02-09T09:10:32.467Z,9.00
2019-02-09T09:13:00.995Z,9.10
2019-02-09T09:15:40.686Z,9.20
2019-02-09T09:18:08.937Z,9.30
2019-02-09T09:20:43.000Z,9.90
2019-02-09T09:23:11.193Z,10.80
2019-02-09T09:25:39.388Z,10.30
2019-02-09T09:28:07.591Z,9.80
2019-02-09T09:30:35.777Z,9.70
2019-02-09T09:33:04.028Z,9.90
2019-02-09T09:35:32.232Z,9.80
2019-02-09T09:38:00.427Z,9.90
2019-02-09T09:40:42.955Z,9.80
2019-02-09T09:43:11.147Z,10.10
2019-02-09T09:45:41.380Z,9.80
2019-02-09T09:48:11.811Z,9.10
2019-02-09T09:50:40.007Z,8.70
2019-02-09T09:53:08.212Z,8.50
2019-02-09T09:55:36.395Z,8.60
2019-02-09T09:58:04.968Z,9.20
2019-02-09T10:00:33.156Z,10.10
2019-02-09T10:03:01.363Z,10.30
2019-02-09T10:05:29.555Z,9.80
2019-02-09T10:07:57.759Z,9.60
2019-02-09T10:10:25.952Z,9.40
2019-02-09T10:12:54.143Z,9.40
2019-02-09T10:15:25.599Z,9.50
2019-02-09T10:17:53.812Z,9.60
2019-02-09T10:20:26.954Z,10.20
2019-02-09T10:22:55.147Z,11.30
2019-02-09T10:25:23.357Z,11.80
2019-02-09T10:27:55.745Z,12.10
2019-02-09T10:30:31.225Z,11.80
2019-02-09T10:32:59.433Z,11.20
2019-02-09T10:35:27.639Z,10.70
2019-02-09T10:37:55.827Z,10.50
2019-02-09T10:40:31.571Z,10.60
2019-02-09T10:42:59.765Z,10.90
2019-02-09T10:45:29.594Z,11.70
2019-02-09T10:47:58.031Z,12.10
2019-02-09T10:50:34.409Z,11.60
2019-02-09T10:53:02.611Z,11.20
2019-02-09T10:55:30.803Z,10.90
2019-02-09T10:57:59.019Z,10.60
2019-02-09T11:00:42.543Z,10.60
2019-02-09T11:03:10.738Z,10.60
2019-02-09T11:05:38.939Z,10.90
2019-02-09T11:08:07.212Z,10.90
2019-02-09T11:10:35.677Z,10.90
2019-02-09T11:13:04.527Z,10.60
2019-02-09T11:15:32.719Z,10.40
2019-02-09T11:18:00.932Z,10.20
2019-02-09T11:20:29.125Z,10.20
2019-02-09T11:22:57.316Z,10.20
2019-02-09T11:25:25.583Z,10.30
2019-02-09T11:27:53.775Z,10.20
2019-02-09T11:30:23.615Z,10.10
2019-02-09T11:32:51.810Z,10.10
2019-02-09T11:35:20.460Z,10.20
2019-02-09T11:37:48.656Z,10.40
2019-02-09T11:40:25.547Z,10.40
2019-02-09T11:42:53.744Z,10.10
2019-02-09T11:45:24.272Z,10.00
2019-02-09T11:47:52.475Z,10.10
2019-02-09T11:50:20.670Z,10.20
2019-02-09T11:52:48.949Z,10.20
2019-02-09T11:55:18.680Z,10.00
2019-02-09T11:57:49.126Z,9.60
2019-02-09T12:00:22.163Z,9.50
2019-02-09T12:02:50.368Z,9.40
2019-02-09T12:05:18.560Z,9.20
2019-02-09T12:07:46.743Z,9.00
2019-02-09T12:10:17.738Z,8.90
2019-02-09T12:12:45.931Z,9.00
2019-02-09T12:15:20.031Z,9.00
2019-02-09T12:17:48.223Z,9.10
2019-02-09T12:20:19.523Z,9.20
2019-02-09T12:22:47.724Z,9.40
2019-02-09T12:25:21.619Z,9.60
2019-02-09T12:27:49.824Z,10.00
2019-02-09T12:30:32.308Z,10.60
2019-02-09T12:33:00.515Z,10.90
2019-02-09T12:35:28.703Z,11.20
2019-02-09T12:37:56.903Z,11.80
2019-02-09T12:40:31.336Z,12.80
2019-02-09T12:42:59.527Z,13.80
2019-02-09T12:45:33.263Z,13.80
2019-02-09T12:48:01.459Z,13.50
2019-02-09T12:50:30.408Z,12.70
2019-02-09T12:52:58.616Z,12.70
2019-02-09T12:55:26.891Z,12.00
2019-02-09T12:57:55.087Z,11.90
2019-02-09T13:00:28.123Z,12.90
2019-02-09T13:02:58.167Z,13.60
2019-02-09T13:05:26.363Z,14.00
2019-02-09T13:07:54.554Z,12.80
2019-02-09T13:10:22.765Z,12.80
2019-02-09T13:12:50.956Z,12.20
2019-02-09T13:15:25.075Z,11.70
2019-02-09T13:17:53.294Z,11.50
2019-02-09T13:20:40.922Z,11.30
2019-02-09T13:23:09.492Z,11.30
2019-02-09T13:25:37.684Z,11.40
2019-02-09T13:28:05.959Z,11.80
2019-02-09T13:30:36.503Z,11.70
2019-02-09T13:33:04.872Z,11.50
2019-02-09T13:35:33.072Z,11.30
2019-02-09T13:38:01.271Z,11.10
2019-02-09T13:40:29.503Z,11.00
2019-02-09T13:42:58.835Z,10.80
2019-02-09T13:45:30.289Z,10.70
2019-02-09T13:47:58.480Z,10.70
2019-02-09T13:50:27.828Z,10.70
2019-02-09T13:52:56.592Z,10.70
2019-02-09T13:55:24.792Z,10.60
2019-02-09T13:57:52.984Z,10.50
2019-02-09T14:00:23.023Z,10.30
2019-02-09T14:03:10.649Z,10.20
2019-02-09T14:05:38.843Z,10.20
2019-02-09T14:08:07.111Z,10.30
2019-02-09T14:10:35.311Z,10.30
2019-02-09T14:13:03.516Z,10.50
2019-02-09T14:15:36.720Z,10.70
2019-02-09T14:18:07.569Z,10.90
2019-02-09T14:20:35.764Z,10.90
2019-02-09T14:23:04.222Z,10.60
2019-02-09T14:25:32.439Z,10.30
2019-02-09T14:28:01.611Z,9.70
2019-02-09T14:30:34.807Z,9.20
2019-02-09T14:33:03.172Z,9.10
2019-02-09T14:35:31.376Z,9.00
2019-02-09T14:37:59.555Z,9.00
2019-02-09T14:40:32.608Z,9.10
2019-02-09T14:43:01.151Z,9.20
2019-02-09T14:45:33.756Z,9.30
2019-02-09T14:48:01.943Z,9.20
2019-02-09T14:50:31.012Z,9.40
2019-02-09T14:52:59.211Z,9.50
2019-02-09T14:55:30.088Z,9.70
2019-02-09T14:57:58.287Z,9.70
2019-02-09T15:00:35.851Z,9.90
2019-02-09T15:03:05.099Z,10.00
2019-02-09T15:05:33.291Z,10.00
2019-02-09T15:08:01.499Z,10.20
2019-02-09T15:10:29.705Z,10.50
2019-02-09T15:12:57.900Z,10.50
2019-02-09T15:15:31.223Z,10.50
2019-02-09T15:17:59.411Z,10.60
2019-02-09T15:20:33.610Z,10.60
2019-02-09T15:23:01.803Z,10.60
2019-02-09T15:25:29.998Z,10.50
2019-02-09T15:27:58.196Z,10.50
2019-02-09T15:30:28.648Z,10.50
2019-02-09T15:32:56.838Z,10.40
2019-02-09T15:35:25.028Z,10.50
2019-02-09T15:37:53.373Z,10.50
2019-02-09T15:40:22.011Z,10.50
2019-02-09T15:42:50.211Z,10.40
2019-02-09T15:45:20.356Z,10.50
2019-02-09T15:47:48.555Z,10.40
2019-02-09T15:50:17.795Z,10.40
2019-02-09T15:52:46.733Z,10.30
2019-02-09T15:55:19.760Z,10.20
2019-02-09T15:57:47.951Z,10.20
2019-02-09T16:00:32.607Z,10.10
2019-02-09T16:03:01.181Z,10.00
2019-02-09T16:05:48.808Z,10.00
2019-02-09T16:08:17.004Z,10.00
2019-02-09T16:10:45.191Z,9.90
2019-02-09T16:13:13.959Z,9.90
2019-02-09T16:15:42.150Z,9.80
2019-02-09T16:18:10.351Z,9.70
2019-02-09T16:20:38.556Z,9.70
2019-02-09T16:23:06.739Z,9.70
2019-02-09T16:25:34.935Z,9.60
2019-02-09T16:28:03.127Z,9.60
2019-02-09T16:30:31.339Z,9.60
2019-02-09T16:32:59.527Z,9.60
2019-02-09T16:35:28.959Z,9.60
2019-02-09T16:37:57.155Z,9.60
2019-02-09T16:40:32.687Z,9.70
2019-02-09T16:43:00.880Z,9.70
2019-02-09T16:45:34.715Z,9.70
2019-02-09T16:48:02.920Z,9.80
2019-02-09T16:50:31.111Z,9.90
2019-02-09T16:52:59.311Z,9.80
2019-02-09T16:55:27.590Z,9.80
2019-02-09T16:57:55.787Z,9.80
2019-02-09T17:00:33.275Z,9.70
2019-02-09T17:03:01.519Z,9.70
2019-02-09T17:05:29.736Z,9.50
2019-02-09T17:07:58.248Z,9.40
2019-02-09T17:10:26.447Z,9.30
2019-02-09T17:12:54.640Z,9.30
2019-02-09T17:15:29.399Z,9.20
2019-02-09T17:17:57.599Z,9.20
2019-02-09T17:20:25.868Z,9.10
2019-02-09T17:22:54.063Z,9.10
2019-02-09T17:25:23.804Z,9.00
2019-02-09T17:27:52.003Z,9.10
2019-02-09T17:30:31.163Z,9.00
2019-02-09T17:32:59.363Z,9.00
2019-02-09T17:35:27.618Z,8.90
2019-02-09T17:37:55.813Z,8.90
2019-02-09T17:40:32.990Z,8.90
2019-02-09T17:43:01.191Z,8.90
2019-02-09T17:45:35.696Z,8.90
2019-02-09T17:48:03.963Z,8.90
2019-02-09T17:50:32.160Z,8.90
2019-02-09T17:53:00.428Z,8.90
2019-02-09T17:55:28.625Z,8.90
2019-02-09T17:57:56.816Z,8.90
2019-02-09T18:00:27.389Z,8.90
2019-02-09T18:02:55.583Z,8.90
2019-02-09T18:05:23.775Z,9.00
2019-02-09T18:07:51.980Z,9.00
2019-02-09T18:10:20.167Z,9.00
2019-02-09T18:12:48.367Z,8.90
2019-02-09T18:15:17.900Z,9.00
2019-02-09T18:17:46.099Z,9.00
2019-02-09T18:20:17.975Z,8.90
2019-02-09T18:22:46.170Z,8.90
2019-02-09T18:25:19.203Z,8.80
2019-02-09T18:27:47.632Z,8.70
2019-02-09T18:30:21.275Z,8.80
2019-02-09T18:32:49.474Z,8.80
2019-02-09T18:35:17.672Z,8.90
2019-02-09T18:37:45.868Z,9.00
2019-02-09T18:40:18.756Z,9.10
2019-02-09T18:42:46.946Z,9.10
2019-02-09T18:45:26.372Z,9.00
2019-02-09T18:47:54.559Z,9.00
2019-02-09T18:50:27.710Z,9.00
2019-02-09T18:52:56.355Z,8.90
2019-02-09T18:55:28.533Z,8.90
2019-02-09T18:57:56.807Z,8.80
2019-02-09T19:00:27.659Z,8.80
2019-02-09T19:02:55.856Z,8.70
2019-02-09T19:05:24.044Z,8.60
2019-02-09T19:07:52.252Z,8.60
2019-02-09T19:10:27.761Z,8.50
2019-02-09T19:12:56.317Z,8.50
2019-02-09T19:15:26.700Z,8.40
2019-02-09T19:17:55.544Z,8.30
2019-02-09T19:20:31.701Z,8.30
2019-02-09T19:23:00.095Z,8.30
2019-02-09T19:25:28.276Z,8.30
2019-02-09T19:27:56.468Z,8.40
2019-02-09T19:30:25.974Z,8.30
2019-02-09T19:32:54.167Z,8.30
2019-02-09T19:35:22.375Z,8.30
2019-02-09T19:37:50.555Z,8.40
2019-02-09T19:40:23.534Z,8.50
2019-02-09T19:42:51.730Z,8.60
2019-02-09T19:45:22.527Z,8.60
2019-02-09T19:47:50.727Z,8.50
2019-02-09T19:50:18.915Z,8.40
2019-02-09T19:52:47.194Z,8.40
2019-02-09T19:55:20.946Z,8.40
2019-02-09T19:57:49.154Z,8.40
2019-02-09T20:00:31.591Z,8.40
2019-02-09T20:02:59.803Z,8.40
2019-02-09T20:05:27.999Z,8.50
2019-02-09T20:07:56.203Z,8.50
2019-02-09T20:10:30.307Z,8.60
2019-02-09T20:12:58.484Z,8.70
2019-02-09T20:15:26.692Z,8.70
2019-02-09T20:17:54.891Z,8.70
2019-02-09T20:20:23.087Z,8.80
2019-02-09T20:22:51.373Z,8.80
2019-02-09T20:25:21.619Z,8.80
2019-02-09T20:27:49.828Z,8.90
2019-02-09T20:30:23.434Z,8.90
2019-02-09T20:32:51.632Z,8.90
2019-02-09T20:35:27.523Z,9.00
2019-02-09T20:37:51.479Z,9.00
2019-02-09T20:40:31.496Z,9.00
2019-02-09T20:43:02.022Z,9.00
2019-02-09T20:45:29.615Z,9.00
2019-02-09T20:47:57.812Z,9.10
2019-02-09T20:50:26.018Z,9.10
2019-02-09T20:52:54.217Z,9.10
2019-02-09T20:55:22.547Z,9.20
2019-02-09T20:57:50.748Z,9.20
2019-02-09T21:00:27.055Z,9.20
2019-02-09T21:02:55.267Z,9.20
2019-02-09T21:05:23.464Z,9.20
2019-02-09T21:07:51.665Z,9.30
2019-02-09T21:10:28.161Z,9.20
2019-02-09T21:12:56.420Z,9.30
2019-02-09T21:15:27.860Z,9.20
2019-02-09T21:17:56.065Z,9.20
2019-02-09T21:20:24.259Z,9.20
2019-02-09T21:22:52.461Z,9.30
2019-02-09T21:25:25.952Z,9.20
2019-02-09T21:27:54.151Z,9.20
2019-02-09T21:30:23.483Z,9.30
2019-02-09T21:32:51.752Z,9.30
2019-02-09T21:35:20.812Z,9.30
2019-02-09T21:37:48.992Z,9.20
2019-02-09T21:40:23.255Z,9.20
2019-02-09T21:42:51.462Z,9.20
2019-02-09T21:45:21.199Z,9.20
2019-02-09T21:47:49.377Z,9.30
2019-02-09T21:50:35.965Z,9.30
2019-02-09T21:53:04.611Z,9.30
2019-02-09T21:55:32.804Z,9.20
2019-02-09T21:58:01.005Z,9.20
2019-02-09T22:00:45.376Z,9.20
2019-02-09T22:03:14.007Z,9.20
2019-02-09T22:05:42.204Z,9.20
2019-02-09T22:08:19.391Z,9.20
2019-02-09T22:10:42.559Z,9.20
2019-02-09T22:13:10.748Z,9.20
2019-02-09T22:15:39.270Z,9.10
2019-02-09T22:18:07.708Z,9.10
2019-02-09T22:20:36.044Z,9.20
2019-02-09T22:23:04.326Z,9.10
2019-02-09T22:25:32.532Z,9.10
2019-02-09T22:28:00.723Z,9.10
2019-02-09T22:30:30.064Z,9.10
2019-02-09T22:32:58.627Z,9.10
2019-02-09T22:35:26.992Z,9.10
2019-02-09T22:37:55.242Z,9.10
2019-02-09T22:40:26.692Z,9.00
2019-02-09T22:42:54.884Z,9.00
2019-02-09T22:45:24.131Z,9.10
2019-02-09T22:47:54.119Z,9.10
2019-02-09T22:50:30.350Z,9.10
2019-02-09T22:52:59.128Z,9.10
2019-02-09T22:55:27.331Z,9.10
2019-02-09T22:57:55.537Z,9.10
2019-02-09T23:00:52.721Z,9.10
2019-02-09T23:03:23.864Z,9.10
2019-02-09T23:06:08.136Z,9.10
2019-02-09T23:08:34.744Z,9.20
2019-02-09T23:11:02.927Z,9.20
2019-02-09T23:13:31.131Z,9.20
2019-02-09T23:15:59.359Z,9.20
2019-02-09T23:18:27.564Z,9.20
2019-02-09T23:20:55.742Z,9.20
2019-02-09T23:23:23.940Z,9.20
2019-02-09T23:25:52.139Z,9.10
2019-02-09T23:28:20.399Z,9.00
2019-02-09T23:30:48.589Z,9.10
2019-02-09T23:33:16.784Z,9.00
2019-02-09T23:35:44.978Z,9.10
2019-02-09T23:38:13.163Z,9.20
2019-02-09T23:41:00.800Z,9.10
2019-02-09T23:43:28.986Z,9.10
2019-02-09T23:45:57.195Z,9.10
2019-02-09T23:48:25.375Z,9.10
2019-02-09T23:50:53.589Z,9.10
2019-02-09T23:53:21.787Z,9.10
2019-02-09T23:55:49.979Z,9.10
2019-02-09T23:58:18.178Z,9.10
